createdAt,value
2019-01-31T00:02:13.129Z,46.50
2019-01-31T00:05:16.457Z,41.43
2019-01-31T00:07:54.242Z,35.93
2019-01-31T00:10:31.698Z,44.17
2019-01-31T00:13:06.097Z,40.83
2019-01-31T00:15:43.597Z,38.60
2019-01-31T00:18:15.328Z,49.47
2019-01-31T00:20:52.753Z,39.97
2019-01-31T00:23:39.409Z,35.60
2019-01-31T00:26:19.972Z,38.87
2019-01-31T00:29:00.754Z,42.90
2019-01-31T00:31:47.848Z,41.70
2019-01-31T00:34:31.862Z,40.63
2019-01-31T00:37:06.464Z,42.33
2019-01-31T00:39:44.057Z,38.03
2019-01-31T00:42:24.612Z,37.87
2019-01-31T00:45:01.865Z,37.83
2019-01-31T00:47:45.636Z,40.10
2019-01-31T00:50:41.001Z,34.20
2019-01-31T00:53:38.287Z,38.53
2019-01-31T00:56:21.660Z,36.90
2019-01-31T00:59:05.638Z,36.03
2019-01-31T01:01:39.857Z,34.23
2019-01-31T01:04:28.195Z,34.70
2019-01-31T01:07:22.596Z,36.00
2019-01-31T01:09:57.716Z,39.63
2019-01-31T01:12:38.058Z,35.30
2019-01-31T01:15:26.638Z,45.40
2019-01-31T01:17:58.274Z,42.40
2019-01-31T01:20:30.150Z,36.40
2019-01-31T01:23:07.760Z,41.50
2019-01-31T01:25:55.238Z,44.93
2019-01-31T01:28:47.334Z,37.53
2019-01-31T01:31:24.538Z,35.03
2019-01-31T01:34:14.472Z,50.13
2019-01-31T01:37:04.471Z,40.10
2019-01-31T01:39:51.365Z,40.33
2019-01-31T01:42:23.129Z,41.30
2019-01-31T01:45:10.984Z,43.13
2019-01-31T01:47:45.482Z,38.60
2019-01-31T01:50:26.046Z,40.13
2019-01-31T01:53:00.480Z,36.57
2019-01-31T01:55:48.814Z,39.17
2019-01-31T01:58:35.744Z,40.03
2019-01-31T02:01:07.569Z,41.03
2019-01-31T02:03:48.318Z,46.00
2019-01-31T02:06:22.760Z,47.03
2019-01-31T02:09:14.404Z,42.13
2019-01-31T02:11:48.834Z,39.13
2019-01-31T02:14:48.034Z,35.70
2019-01-31T02:17:46.810Z,37.90
2019-01-31T02:20:38.030Z,44.33
2019-01-31T02:23:22.028Z,55.60
2019-01-31T02:26:00.081Z,41.20
2019-01-31T02:28:37.580Z,40.57
2019-01-31T02:31:25.660Z,41.47
2019-01-31T02:34:27.844Z,44.20
2019-01-31T02:37:05.286Z,44.20
2019-01-31T02:39:46.056Z,43.77
2019-01-31T02:42:21.162Z,42.70
2019-01-31T02:45:15.770Z,40.60
2019-01-31T02:48:06.954Z,46.27
2019-01-31T02:50:38.788Z,41.27
2019-01-31T02:53:10.622Z,39.17
2019-01-31T02:55:51.278Z,36.80
2019-01-31T02:58:45.220Z,46.30
2019-01-31T03:01:19.770Z,48.50
2019-01-31T03:04:07.752Z,39.30
2019-01-31T03:07:14.498Z,37.93
2019-01-31T03:09:54.890Z,49.47
2019-01-31T03:12:40.133Z,40.00
2019-01-31T03:15:29.296Z,40.60
2019-01-31T03:18:10.025Z,37.73
2019-01-31T03:20:50.620Z,43.77
2019-01-31T03:23:36.570Z,50.43
2019-01-31T03:26:24.769Z,47.33
2019-01-31T03:29:02.433Z,46.97
2019-01-31T03:31:55.325Z,43.93
2019-01-31T03:34:29.949Z,42.07
2019-01-31T03:37:22.672Z,41.43
2019-01-31T03:40:06.922Z,54.83
2019-01-31T03:42:36.088Z,47.00
2019-01-31T03:45:13.599Z,55.80
2019-01-31T03:47:48.455Z,52.63
2019-01-31T03:50:23.020Z,59.83
2019-01-31T03:52:54.882Z,42.63
2019-01-31T03:55:38.700Z,42.53
2019-01-31T03:58:27.430Z,51.13
2019-01-31T04:01:15.912Z,40.77
2019-01-31T04:03:52.738Z,47.60
2019-01-31T04:06:24.615Z,38.67
2019-01-31T04:08:53.324Z,42.93
2019-01-31T04:11:22.292Z,50.07
2019-01-31T04:13:50.949Z,44.77
2019-01-31T04:16:19.756Z,51.17
2019-01-31T04:18:48.306Z,49.80
2019-01-31T04:21:17.352Z,51.20
2019-01-31T04:23:45.908Z,49.50
2019-01-31T04:26:14.552Z,55.73
2019-01-31T04:28:43.121Z,46.10
2019-01-31T04:31:11.747Z,48.93
2019-01-31T04:33:40.589Z,49.03
2019-01-31T04:36:09.152Z,48.97
2019-01-31T04:38:38.154Z,54.37
2019-01-31T04:41:06.774Z,47.60
2019-01-31T04:43:35.459Z,54.00
2019-01-31T04:46:04.157Z,55.07
2019-01-31T04:48:32.897Z,52.73
2019-01-31T04:51:01.580Z,46.53
2019-01-31T04:53:30.140Z,51.00
2019-01-31T04:55:58.703Z,64.00
2019-01-31T04:58:27.638Z,52.40
2019-01-31T05:00:58.918Z,56.17
2019-01-31T05:03:27.658Z,48.47
2019-01-31T05:05:56.299Z,62.90
2019-01-31T05:08:24.855Z,49.93
2019-01-31T05:10:53.722Z,51.53
2019-01-31T05:13:22.921Z,55.23
2019-01-31T05:15:51.624Z,67.10
2019-01-31T05:18:20.182Z,50.73
2019-01-31T05:20:48.880Z,53.90
2019-01-31T05:23:17.445Z,50.20
2019-01-31T05:25:46.249Z,60.43
2019-01-31T05:28:14.794Z,52.23
2019-01-31T05:30:43.631Z,63.00
2019-01-31T05:33:13.236Z,59.67
2019-01-31T05:35:42.024Z,50.50
2019-01-31T05:38:10.674Z,54.33
2019-01-31T05:40:39.694Z,63.40
2019-01-31T05:43:08.334Z,54.70
2019-01-31T05:45:37.002Z,49.57
2019-01-31T05:48:05.648Z,60.03
2019-01-31T05:50:34.431Z,45.93
2019-01-31T05:53:02.990Z,48.50
2019-01-31T05:55:31.805Z,57.67
2019-01-31T05:58:00.369Z,53.13
2019-01-31T06:00:30.565Z,54.40
2019-01-31T06:02:59.290Z,62.37
2019-01-31T06:05:27.909Z,53.93
2019-01-31T06:07:58.143Z,49.10
2019-01-31T06:10:26.989Z,50.93
2019-01-31T06:12:55.560Z,53.80
2019-01-31T06:15:24.579Z,65.47
2019-01-31T06:17:53.200Z,59.50
2019-01-31T06:20:24.617Z,48.60
2019-01-31T06:22:53.240Z,47.57
2019-01-31T06:25:22.202Z,55.90
2019-01-31T06:27:50.894Z,53.93
2019-01-31T06:30:19.965Z,61.80
2019-01-31T06:32:48.908Z,61.30
2019-01-31T06:35:17.966Z,59.10
2019-01-31T06:37:46.524Z,65.10
2019-01-31T06:40:20.434Z,57.50
2019-01-31T06:42:49.254Z,61.33
2019-01-31T06:45:20.685Z,64.13
2019-01-31T06:47:49.616Z,58.80
2019-01-31T06:50:18.672Z,70.50
2019-01-31T06:52:47.240Z,64.90
2019-01-31T06:55:16.177Z,66.27
2019-01-31T06:57:44.750Z,55.17
2019-01-31T07:00:19.493Z,54.60
2019-01-31T07:02:48.608Z,64.57
2019-01-31T07:05:17.644Z,64.90
2019-01-31T07:07:46.196Z,57.97
2019-01-31T07:10:20.947Z,54.07
2019-01-31T07:12:49.519Z,55.10
2019-01-31T07:15:18.323Z,69.77
2019-01-31T07:17:46.967Z,64.00
2019-01-31T07:20:17.260Z,65.77
2019-01-31T07:22:46.639Z,71.57
2019-01-31T07:25:21.252Z,74.60
2019-01-31T07:27:49.830Z,59.80
2019-01-31T07:30:21.262Z,71.33
2019-01-31T07:32:50.601Z,54.70
2019-01-31T07:35:19.397Z,68.87
2019-01-31T07:37:49.604Z,70.60
2019-01-31T07:40:20.514Z,78.70
2019-01-31T07:42:49.430Z,80.80
2019-01-31T07:45:23.190Z,73.03
2019-01-31T07:47:52.350Z,94.13
2019-01-31T07:50:21.305Z,94.63
2019-01-31T07:52:50.116Z,67.30
2019-01-31T07:55:19.528Z,54.50
2019-01-31T07:57:48.702Z,59.07
2019-01-31T08:00:22.129Z,58.33
2019-01-31T08:02:51.002Z,64.57
2019-01-31T08:05:23.979Z,60.17
2019-01-31T08:07:54.675Z,64.50
2019-01-31T08:10:26.605Z,63.40
2019-01-31T08:12:55.330Z,76.43
2019-01-31T08:15:24.262Z,72.33
2019-01-31T08:17:52.887Z,82.00
2019-01-31T08:20:21.840Z,78.40
2019-01-31T08:22:50.471Z,78.83
2019-01-31T08:25:21.699Z,72.07
2019-01-31T08:27:51.997Z,68.53
2019-01-31T08:30:23.582Z,80.30
2019-01-31T08:32:52.446Z,68.80
2019-01-31T08:35:21.532Z,66.90
2019-01-31T08:37:50.281Z,70.13
2019-01-31T08:40:18.907Z,63.50
2019-01-31T08:42:47.797Z,66.90
2019-01-31T08:45:16.610Z,59.90
2019-01-31T08:47:45.364Z,58.50
2019-01-31T08:50:19.940Z,70.13
2019-01-31T08:52:49.299Z,67.03
2019-01-31T08:55:18.111Z,71.00
2019-01-31T08:57:47.756Z,74.27
2019-01-31T09:00:24.579Z,70.57
2019-01-31T09:02:53.462Z,84.37
2019-01-31T09:05:22.339Z,73.27
2019-01-31T09:07:51.108Z,76.97
2019-01-31T09:10:25.529Z,61.93
2019-01-31T09:12:54.228Z,72.30
2019-01-31T09:15:24.687Z,70.27
2019-01-31T09:17:53.453Z,53.20
2019-01-31T09:20:41.693Z,63.50
2019-01-31T09:23:19.609Z,59.53
2019-01-31T09:26:06.319Z,57.47
2019-01-31T09:28:43.750Z,58.30
2019-01-31T09:31:24.390Z,59.20
2019-01-31T09:34:17.385Z,59.67
2019-01-31T09:36:51.846Z,43.73
2019-01-31T09:39:23.479Z,67.07
2019-01-31T09:42:03.972Z,56.43
2019-01-31T09:45:01.176Z,72.57
2019-01-31T09:47:36.567Z,50.87
2019-01-31T09:50:20.373Z,61.10
2019-01-31T09:53:25.340Z,52.27
2019-01-31T09:56:22.707Z,53.67
2019-01-31T09:59:00.273Z,59.80
2019-01-31T10:02:05.337Z,60.07
2019-01-31T10:04:46.101Z,55.17
2019-01-31T10:07:20.375Z,59.73
2019-01-31T10:10:04.590Z,49.30
2019-01-31T10:12:41.701Z,49.77
2019-01-31T10:15:32.581Z,45.20
2019-01-31T10:18:12.946Z,41.80
2019-01-31T10:21:19.603Z,42.57
2019-01-31T10:24:06.540Z,41.70
2019-01-31T10:26:41.545Z,36.83
2019-01-31T10:29:34.549Z,42.67
2019-01-31T10:32:06.430Z,38.10
2019-01-31T10:34:53.256Z,32.77
2019-01-31T10:37:30.989Z,32.60
2019-01-31T10:40:17.427Z,27.13
2019-01-31T10:43:05.005Z,25.73
2019-01-31T10:45:48.639Z,30.40
2019-01-31T10:48:53.508Z,24.33
2019-01-31T10:51:30.883Z,24.80
2019-01-31T10:54:18.917Z,33.80
2019-01-31T10:57:02.541Z,23.23
2019-01-31T10:59:36.897Z,18.67
2019-01-31T11:02:31.547Z,15.30
2019-01-31T11:05:22.833Z,10.77
2019-01-31T11:08:00.673Z,17.80
2019-01-31T11:10:41.501Z,7.87
2019-01-31T11:13:31.679Z,8.50
2019-01-31T11:16:06.480Z,10.23
2019-01-31T11:18:47.221Z,7.80
2019-01-31T11:21:35.163Z,13.03
2019-01-31T11:24:25.957Z,6.80
2019-01-31T11:27:00.703Z,13.00
2019-01-31T11:29:35.182Z,10.67
2019-01-31T11:32:31.341Z,12.93
2019-01-31T11:35:21.151Z,13.87
2019-01-31T11:38:07.242Z,9.90
2019-01-31T11:40:41.727Z,15.40
2019-01-31T11:43:35.058Z,15.20
2019-01-31T11:46:15.455Z,12.80
2019-01-31T11:48:50.044Z,12.93
2019-01-31T11:51:55.419Z,18.70
2019-01-31T11:54:55.173Z,9.80
2019-01-31T11:57:44.202Z,11.20
2019-01-31T12:00:17.486Z,9.20
2019-01-31T12:02:54.786Z,10.37
2019-01-31T12:05:16.624Z,8.17
2019-01-31T12:07:45.713Z,13.70
2019-01-31T12:10:14.534Z,10.40
2019-01-31T12:12:43.861Z,8.63
2019-01-31T12:15:12.992Z,7.47
2019-01-31T12:17:41.889Z,9.30
2019-01-31T12:20:16.082Z,10.77
2019-01-31T12:22:45.197Z,13.07
2019-01-31T12:25:14.249Z,6.73
2019-01-31T12:27:43.181Z,10.33
2019-01-31T12:30:14.904Z,10.20
2019-01-31T12:32:44.033Z,11.27
2019-01-31T12:35:12.931Z,13.97
2019-01-31T12:37:41.814Z,13.10
2019-01-31T12:40:13.749Z,12.13
2019-01-31T12:42:42.866Z,15.43
2019-01-31T12:45:14.372Z,13.43
2019-01-31T12:47:43.317Z,13.00
2019-01-31T12:50:17.560Z,12.83
2019-01-31T12:52:46.425Z,18.47
2019-01-31T12:55:15.039Z,11.23
2019-01-31T12:57:43.998Z,18.37
2019-01-31T13:00:18.569Z,17.90
2019-01-31T13:02:47.929Z,15.80
2019-01-31T13:05:16.746Z,9.00
2019-01-31T13:07:46.047Z,9.47
2019-01-31T13:10:15.405Z,12.63
2019-01-31T13:12:48.903Z,12.50
2019-01-31T13:15:16.731Z,13.53
2019-01-31T13:17:45.974Z,17.73
2019-01-31T13:20:17.714Z,18.83
2019-01-31T13:22:47.034Z,18.30
2019-01-31T13:25:16.125Z,14.60
2019-01-31T13:27:45.117Z,13.67
2019-01-31T13:30:16.785Z,15.77
2019-01-31T13:32:46.199Z,11.67
2019-01-31T13:35:16.374Z,19.47
2019-01-31T13:37:45.185Z,14.83
2019-01-31T13:40:22.152Z,17.53
2019-01-31T13:42:51.727Z,14.03
2019-01-31T13:45:28.583Z,12.17
2019-01-31T13:47:59.915Z,19.83
2019-01-31T13:50:28.822Z,21.17
2019-01-31T13:52:57.689Z,20.50
2019-01-31T13:55:28.989Z,24.60
2019-01-31T13:57:57.707Z,27.53
2019-01-31T14:00:26.615Z,20.60
2019-01-31T14:02:55.710Z,24.50
2019-01-31T14:05:25.717Z,26.93
2019-01-31T14:07:54.799Z,23.23
2019-01-31T14:10:25.439Z,27.13
2019-01-31T14:12:54.343Z,29.93
2019-01-31T14:15:33.881Z,28.50
2019-01-31T14:18:01.943Z,32.50
2019-01-31T14:20:30.850Z,30.03
2019-01-31T14:22:59.495Z,30.67
2019-01-31T14:25:28.622Z,29.33
2019-01-31T14:27:57.255Z,29.67
2019-01-31T14:30:29.077Z,25.50
2019-01-31T14:32:58.511Z,26.47
2019-01-31T14:35:28.084Z,34.93
2019-01-31T14:37:57.097Z,27.90
2019-01-31T14:40:26.572Z,24.20
2019-01-31T14:42:56.399Z,32.63
2019-01-31T14:45:25.692Z,26.83
2019-01-31T14:47:55.875Z,26.33
2019-01-31T14:50:35.563Z,26.70
2019-01-31T14:53:04.813Z,31.73
2019-01-31T14:55:33.947Z,24.90
2019-01-31T14:58:02.839Z,29.10
2019-01-31T15:00:33.366Z,34.50
2019-01-31T15:03:05.325Z,34.70
2019-01-31T15:05:36.619Z,38.27
2019-01-31T15:08:04.969Z,31.37
2019-01-31T15:10:34.370Z,37.63
2019-01-31T15:13:02.916Z,31.70
2019-01-31T15:15:34.537Z,28.90
2019-01-31T15:18:03.173Z,31.43
2019-01-31T15:20:42.834Z,34.00
2019-01-31T15:23:11.543Z,26.73
2019-01-31T15:25:40.502Z,32.80
2019-01-31T15:28:09.205Z,32.73
2019-01-31T15:30:38.705Z,29.30
2019-01-31T15:33:10.015Z,25.97
2019-01-31T15:35:38.919Z,27.50
2019-01-31T15:38:07.739Z,26.60
2019-01-31T15:40:42.865Z,29.87
2019-01-31T15:43:12.098Z,32.30
2019-01-31T15:45:41.043Z,26.07
2019-01-31T15:48:10.780Z,32.07
2019-01-31T15:50:40.067Z,29.27
2019-01-31T15:53:09.366Z,29.53
2019-01-31T15:55:38.382Z,26.53
2019-01-31T15:58:07.179Z,25.47
2019-01-31T16:00:40.736Z,25.90
2019-01-31T16:03:11.452Z,23.30
2019-01-31T16:05:40.377Z,27.90
2019-01-31T16:08:09.882Z,27.77
2019-01-31T16:10:38.804Z,33.63
2019-01-31T16:13:07.805Z,28.60
2019-01-31T16:15:36.896Z,58.50
2019-01-31T16:18:07.711Z,31.83
2019-01-31T16:20:36.535Z,50.77
2019-01-31T16:23:05.634Z,40.77
2019-01-31T16:25:34.384Z,32.27
2019-01-31T16:28:03.096Z,31.17
2019-01-31T16:30:31.972Z,26.33
2019-01-31T16:33:00.558Z,25.03
2019-01-31T16:35:30.130Z,28.63
2019-01-31T16:37:58.744Z,27.50
2019-01-31T16:40:27.708Z,42.30
2019-01-31T16:42:56.344Z,45.20
2019-01-31T16:45:25.813Z,41.80
2019-01-31T16:47:54.450Z,51.97
2019-01-31T16:50:24.704Z,33.70
2019-01-31T16:52:53.659Z,43.20
2019-01-31T16:55:29.979Z,40.40
2019-01-31T16:57:59.172Z,43.97
2019-01-31T17:00:30.613Z,53.83
2019-01-31T17:02:59.311Z,36.33
2019-01-31T17:05:30.443Z,59.83
2019-01-31T17:07:59.544Z,44.17
2019-01-31T17:10:28.434Z,56.70
2019-01-31T17:12:57.927Z,55.00
2019-01-31T17:15:27.530Z,63.17
2019-01-31T17:17:56.324Z,43.60
2019-01-31T17:20:37.292Z,60.63
2019-01-31T17:23:06.002Z,48.37
2019-01-31T17:25:35.077Z,33.60
2019-01-31T17:28:03.646Z,42.70
2019-01-31T17:30:32.441Z,34.07
2019-01-31T17:33:04.093Z,41.33
2019-01-31T17:35:32.906Z,35.10
2019-01-31T17:38:01.538Z,29.10
2019-01-31T17:40:35.564Z,33.17
2019-01-31T17:43:05.130Z,43.83
2019-01-31T17:45:36.912Z,34.33
2019-01-31T17:48:06.504Z,34.67
2019-01-31T17:50:35.249Z,36.70
2019-01-31T17:53:04.138Z,39.43
2019-01-31T17:55:32.847Z,35.90
2019-01-31T17:58:01.922Z,31.43
2019-01-31T18:00:37.854Z,29.43
2019-01-31T18:03:07.657Z,30.97
2019-01-31T18:05:36.691Z,33.43
2019-01-31T18:08:09.150Z,37.20
2019-01-31T18:10:37.019Z,43.23
2019-01-31T18:13:05.848Z,34.10
2019-01-31T18:15:41.665Z,37.10
2019-01-31T18:18:05.764Z,35.00
2019-01-31T18:20:35.046Z,32.13
2019-01-31T18:23:06.655Z,40.03
2019-01-31T18:25:35.479Z,48.63
2019-01-31T18:28:04.456Z,50.00
2019-01-31T18:30:35.733Z,57.07
2019-01-31T18:33:05.435Z,45.27
2019-01-31T18:35:34.733Z,44.73
2019-01-31T18:38:03.290Z,45.03
2019-01-31T18:40:34.770Z,43.50
2019-01-31T18:43:03.481Z,45.17
2019-01-31T18:45:38.093Z,40.00
2019-01-31T18:48:07.022Z,44.67
2019-01-31T18:50:39.138Z,44.87
2019-01-31T18:53:08.506Z,46.27
2019-01-31T18:55:37.348Z,45.07
2019-01-31T18:58:06.866Z,53.83
2019-01-31T19:00:44.549Z,37.90
2019-01-31T19:03:13.301Z,49.43
2019-01-31T19:05:42.536Z,49.13
2019-01-31T19:08:11.178Z,40.00
2019-01-31T19:10:43.971Z,49.20
2019-01-31T19:13:10.372Z,38.83
2019-01-31T19:15:39.153Z,50.77
2019-01-31T19:18:07.875Z,46.27
2019-01-31T19:20:36.968Z,39.37
2019-01-31T19:23:07.479Z,41.27
2019-01-31T19:25:36.439Z,41.13
2019-01-31T19:28:06.443Z,51.37
2019-01-31T19:30:40.033Z,42.00
2019-01-31T19:33:08.924Z,50.47
2019-01-31T19:35:38.131Z,52.80
2019-01-31T19:38:07.734Z,43.27
2019-01-31T19:40:39.195Z,56.50
2019-01-31T19:43:07.918Z,48.53
2019-01-31T19:45:39.676Z,44.03
2019-01-31T19:48:08.984Z,46.53
2019-01-31T19:50:37.914Z,49.40
2019-01-31T19:53:06.799Z,49.03
2019-01-31T19:55:35.902Z,55.10
2019-01-31T19:58:05.198Z,49.60
2019-01-31T20:00:34.102Z,57.00
2019-01-31T20:03:07.008Z,47.10
2019-01-31T20:05:36.204Z,52.03
2019-01-31T20:08:06.493Z,51.93
2019-01-31T20:10:35.242Z,58.50
2019-01-31T20:13:04.245Z,52.40
2019-01-31T20:15:35.833Z,53.70
2019-01-31T20:18:05.003Z,55.37
2019-01-31T20:20:33.653Z,57.07
2019-01-31T20:23:02.709Z,53.03
2019-01-31T20:25:32.006Z,48.23
2019-01-31T20:28:00.636Z,45.10
2019-01-31T20:30:31.444Z,49.67
2019-01-31T20:33:01.794Z,48.33
2019-01-31T20:35:31.011Z,52.27
2019-01-31T20:38:00.405Z,52.13
2019-01-31T20:40:38.045Z,67.53
2019-01-31T20:43:08.960Z,58.57
2019-01-31T20:45:38.287Z,47.20
2019-01-31T20:48:07.406Z,63.90
2019-01-31T20:50:38.313Z,63.70
2019-01-31T20:53:07.691Z,56.67
2019-01-31T20:55:37.111Z,66.53
2019-01-31T20:58:06.536Z,58.93
2019-01-31T21:00:37.976Z,69.03
2019-01-31T21:03:08.280Z,57.40
2019-01-31T21:05:37.379Z,66.70
2019-01-31T21:08:08.128Z,66.30
2019-01-31T21:10:37.016Z,68.37
2019-01-31T21:13:06.973Z,87.13
2019-01-31T21:15:35.861Z,61.13
2019-01-31T21:18:05.486Z,82.27
2019-01-31T21:20:34.403Z,84.50
2019-01-31T21:23:04.237Z,67.10
2019-01-31T21:25:34.433Z,68.07
2019-01-31T21:28:03.521Z,67.50
2019-01-31T21:30:37.444Z,70.27
2019-01-31T21:33:07.909Z,68.37
2019-01-31T21:35:36.603Z,69.47
2019-01-31T21:38:05.988Z,67.77
2019-01-31T21:40:35.478Z,75.27
2019-01-31T21:43:05.184Z,77.63
2019-01-31T21:45:34.078Z,73.70
2019-01-31T21:48:02.964Z,79.70
2019-01-31T21:50:33.066Z,73.90
2019-01-31T21:53:02.187Z,83.27
2019-01-31T21:55:32.517Z,68.73
2019-01-31T21:58:01.317Z,74.83
2019-01-31T22:00:32.422Z,77.80
2019-01-31T22:03:01.178Z,70.80
2019-01-31T22:05:30.095Z,69.10
2019-01-31T22:07:59.222Z,70.67
2019-01-31T22:10:27.837Z,67.33
2019-01-31T22:12:56.562Z,69.60
2019-01-31T22:15:27.290Z,72.30
2019-01-31T22:17:59.742Z,86.37
2019-01-31T22:20:26.666Z,74.17
2019-01-31T22:22:55.832Z,81.73
2019-01-31T22:25:25.350Z,74.47
2019-01-31T22:27:54.442Z,67.27
2019-01-31T22:30:31.287Z,61.73
2019-01-31T22:33:00.537Z,61.33
2019-01-31T22:35:29.320Z,62.83
2019-01-31T22:37:58.400Z,66.37
2019-01-31T22:40:27.031Z,65.13
2019-01-31T22:42:55.798Z,56.60
2019-01-31T22:45:25.393Z,59.27
2019-01-31T22:47:54.201Z,62.50
2019-01-31T22:50:24.082Z,62.53
2019-01-31T22:52:52.887Z,69.97
2019-01-31T22:55:23.388Z,60.17
2019-01-31T22:57:52.500Z,65.27
2019-01-31T23:00:54.064Z,61.53
2019-01-31T23:03:23.597Z,71.90
2019-01-31T23:05:52.223Z,60.00
2019-01-31T23:08:21.026Z,64.60
2019-01-31T23:10:49.734Z,56.23
2019-01-31T23:13:19.214Z,64.87
2019-01-31T23:15:47.773Z,73.70
2019-01-31T23:18:16.491Z,66.87
2019-01-31T23:20:45.063Z,64.20
2019-01-31T23:23:13.755Z,59.43
2019-01-31T23:25:42.390Z,62.73
2019-01-31T23:28:11.020Z,67.17
2019-01-31T23:30:40.027Z,65.97
2019-01-31T23:33:08.660Z,106.90
2019-01-31T23:35:37.418Z,66.10
2019-01-31T23:38:06.206Z,71.73
2019-01-31T23:40:34.868Z,58.27
2019-01-31T23:43:03.701Z,68.90
2019-01-31T23:45:32.416Z,65.23
2019-01-31T23:48:05.797Z,70.57
2019-01-31T23:50:34.828Z,64.53
2019-01-31T23:53:03.464Z,58.33
2019-01-31T23:55:32.176Z,59.53
2019-01-31T23:58:01.090Z,64.53
